sensor_id;sensor_type;location;lat;lon;timestamp;P1;durP1;ratioP1;P2;durP2;ratioP2
65459;SDS011;52058;49.822;6.754;2023-05-09T00:02:18;9.75;;;7.25;;
65459;SDS011;52058;49.822;6.754;2023-05-09T00:04:44;8.57;;;7.30;;
65459;SDS011;52058;49.822;6.754;2023-05-09T00:07:11;13.27;;;8.20;;
65459;SDS011;52058;49.822;6.754;2023-05-09T00:09:37;9.05;;;6.93;;
65459;SDS011;52058;49.822;6.754;2023-05-09T00:12:05;8.75;;;7.32;;
65459;SDS011;52058;49.822;6.754;2023-05-09T00:14:33;10.07;;;7.82;;
65459;SDS011;52058;49.822;6.754;2023-05-09T00:16:59;10.43;;;7.63;;
65459;SDS011;52058;49.822;6.754;2023-05-09T00:19:26;10.98;;;8.13;;
65459;SDS011;52058;49.822;6.754;2023-05-09T00:21:53;9.90;;;8.27;;
65459;SDS011;52058;49.822;6.754;2023-05-09T00:24:19;12.43;;;9.48;;
65459;SDS011;52058;49.822;6.754;2023-05-09T00:26:46;11.73;;;9.10;;
65459;SDS011;52058;49.822;6.754;2023-05-09T00:29:14;13.55;;;9.63;;
65459;SDS011;52058;49.822;6.754;2023-05-09T00:31:40;13.90;;;9.23;;
65459;SDS011;52058;49.822;6.754;2023-05-09T00:34:07;10.48;;;8.80;;
65459;SDS011;52058;49.822;6.754;2023-05-09T00:36:33;11.95;;;9.57;;
65459;SDS011;52058;49.822;6.754;2023-05-09T00:39:00;15.15;;;9.43;;
65459;SDS011;52058;49.822;6.754;2023-05-09T00:41:26;10.48;;;8.82;;
65459;SDS011;52058;49.822;6.754;2023-05-09T00:43:53;13.57;;;9.38;;
65459;SDS011;52058;49.822;6.754;2023-05-09T00:46:21;11.88;;;9.18;;
65459;SDS011;52058;49.822;6.754;2023-05-09T00:48:48;12.50;;;9.07;;
65459;SDS011;52058;49.822;6.754;2023-05-09T00:51:16;10.23;;;8.90;;
65459;SDS011;52058;49.822;6.754;2023-05-09T00:53:43;10.50;;;8.55;;
65459;SDS011;52058;49.822;6.754;2023-05-09T00:56:10;11.90;;;9.15;;
65459;SDS011;52058;49.822;6.754;2023-05-09T00:58:37;10.82;;;8.60;;
65459;SDS011;52058;49.822;6.754;2023-05-09T01:01:03;10.10;;;8.48;;
65459;SDS011;52058;49.822;6.754;2023-05-09T01:03:31;11.65;;;9.00;;
65459;SDS011;52058;49.822;6.754;2023-05-09T01:06:00;12.73;;;9.30;;
65459;SDS011;52058;49.822;6.754;2023-05-09T01:08:33;11.70;;;8.95;;
65459;SDS011;52058;49.822;6.754;2023-05-09T01:11:08;11.63;;;9.23;;
65459;SDS011;52058;49.822;6.754;2023-05-09T01:13:40;11.15;;;8.35;;
65459;SDS011;52058;49.822;6.754;2023-05-09T01:16:16;11.20;;;8.77;;
65459;SDS011;52058;49.822;6.754;2023-05-09T01:18:51;10.10;;;8.27;;
65459;SDS011;52058;49.822;6.754;2023-05-09T01:21:25;11.88;;;8.35;;
65459;SDS011;52058;49.822;6.754;2023-05-09T01:24:12;11.32;;;8.77;;
65459;SDS011;52058;49.822;6.754;2023-05-09T01:26:55;11.98;;;8.70;;
65459;SDS011;52058;49.822;6.754;2023-05-09T01:29:36;11.60;;;8.65;;
65459;SDS011;52058;49.822;6.754;2023-05-09T01:32:07;10.10;;;7.97;;
65459;SDS011;52058;49.822;6.754;2023-05-09T01:34:35;9.07;;;7.95;;
65459;SDS011;52058;49.822;6.754;2023-05-09T01:37:04;13.30;;;8.50;;
65459;SDS011;52058;49.822;6.754;2023-05-09T01:39:32;11.80;;;8.85;;
65459;SDS011;52058;49.822;6.754;2023-05-09T01:42:01;10.27;;;8.52;;
65459;SDS011;52058;49.822;6.754;2023-05-09T01:44:28;10.23;;;8.13;;
65459;SDS011;52058;49.822;6.754;2023-05-09T01:47:01;8.90;;;7.93;;
65459;SDS011;52058;49.822;6.754;2023-05-09T01:49:30;10.93;;;8.40;;
65459;SDS011;52058;49.822;6.754;2023-05-09T01:51:58;11.80;;;7.70;;
65459;SDS011;52058;49.822;6.754;2023-05-09T01:54:28;10.45;;;8.05;;
65459;SDS011;52058;49.822;6.754;2023-05-09T01:56:55;11.52;;;7.70;;
65459;SDS011;52058;49.822;6.754;2023-05-09T01:59:24;11.70;;;7.80;;
65459;SDS011;52058;49.822;6.754;2023-05-09T02:01:53;10.80;;;7.60;;
65459;SDS011;52058;49.822;6.754;2023-05-09T02:04:22;10.15;;;8.00;;
65459;SDS011;52058;49.822;6.754;2023-05-09T02:06:50;11.20;;;8.65;;
65459;SDS011;52058;49.822;6.754;2023-05-09T02:09:17;12.43;;;8.80;;
65459;SDS011;52058;49.822;6.754;2023-05-09T02:11:44;11.15;;;9.02;;
65459;SDS011;52058;49.822;6.754;2023-05-09T02:14:10;10.88;;;7.95;;
65459;SDS011;52058;49.822;6.754;2023-05-09T02:16:37;10.32;;;7.95;;
65459;SDS011;52058;49.822;6.754;2023-05-09T02:19:04;8.60;;;7.18;;
65459;SDS011;52058;49.822;6.754;2023-05-09T02:21:32;10.02;;;7.80;;
65459;SDS011;52058;49.822;6.754;2023-05-09T02:23:59;11.75;;;7.85;;
65459;SDS011;52058;49.822;6.754;2023-05-09T02:26:26;8.90;;;6.78;;
65459;SDS011;52058;49.822;6.754;2023-05-09T02:28:54;8.90;;;7.07;;
65459;SDS011;52058;49.822;6.754;2023-05-09T02:31:22;9.50;;;7.18;;
65459;SDS011;52058;49.822;6.754;2023-05-09T02:33:51;10.50;;;7.50;;
65459;SDS011;52058;49.822;6.754;2023-05-09T02:36:19;12.00;;;7.38;;
65459;SDS011;52058;49.822;6.754;2023-05-09T02:38:48;9.88;;;7.93;;
65459;SDS011;52058;49.822;6.754;2023-05-09T02:41:16;11.15;;;7.82;;
65459;SDS011;52058;49.822;6.754;2023-05-09T02:43:42;11.80;;;8.35;;
65459;SDS011;52058;49.822;6.754;2023-05-09T02:46:09;9.20;;;7.25;;
65459;SDS011;52058;49.822;6.754;2023-05-09T02:48:36;10.93;;;7.88;;
65459;SDS011;52058;49.822;6.754;2023-05-09T02:51:03;9.05;;;6.45;;
65459;SDS011;52058;49.822;6.754;2023-05-09T02:53:29;10.07;;;7.53;;
65459;SDS011;52058;49.822;6.754;2023-05-09T02:55:57;13.10;;;7.55;;
65459;SDS011;52058;49.822;6.754;2023-05-09T02:58:24;11.38;;;8.38;;
65459;SDS011;52058;49.822;6.754;2023-05-09T03:00:50;11.27;;;7.30;;
65459;SDS011;52058;49.822;6.754;2023-05-09T03:03:17;10.07;;;7.32;;
65459;SDS011;52058;49.822;6.754;2023-05-09T03:05:43;11.32;;;7.80;;
65459;SDS011;52058;49.822;6.754;2023-05-09T03:08:10;11.63;;;7.57;;
65459;SDS011;52058;49.822;6.754;2023-05-09T03:10:36;10.68;;;8.15;;
65459;SDS011;52058;49.822;6.754;2023-05-09T03:13:04;11.32;;;7.82;;
65459;SDS011;52058;49.822;6.754;2023-05-09T03:15:31;13.45;;;8.07;;
65459;SDS011;52058;49.822;6.754;2023-05-09T03:17:57;13.05;;;8.50;;
65459;SDS011;52058;49.822;6.754;2023-05-09T03:20:24;14.55;;;8.15;;
65459;SDS011;52058;49.822;6.754;2023-05-09T03:22:51;14.43;;;8.57;;
65459;SDS011;52058;49.822;6.754;2023-05-09T03:25:17;15.43;;;8.80;;
65459;SDS011;52058;49.822;6.754;2023-05-09T03:27:44;15.68;;;8.18;;
65459;SDS011;52058;49.822;6.754;2023-05-09T03:30:13;15.13;;;9.23;;
65459;SDS011;52058;49.822;6.754;2023-05-09T03:32:39;15.45;;;9.02;;
65459;SDS011;52058;49.822;6.754;2023-05-09T03:35:06;12.15;;;8.93;;
65459;SDS011;52058;49.822;6.754;2023-05-09T03:37:33;15.40;;;9.52;;
65459;SDS011;52058;49.822;6.754;2023-05-09T03:40:00;15.45;;;10.07;;
65459;SDS011;52058;49.822;6.754;2023-05-09T03:42:26;18.20;;;10.07;;
65459;SDS011;52058;49.822;6.754;2023-05-09T03:44:53;16.15;;;10.57;;
65459;SDS011;52058;49.822;6.754;2023-05-09T03:47:21;14.27;;;9.73;;
65459;SDS011;52058;49.822;6.754;2023-05-09T03:49:47;16.45;;;9.50;;
65459;SDS011;52058;49.822;6.754;2023-05-09T03:52:14;15.88;;;9.65;;
65459;SDS011;52058;49.822;6.754;2023-05-09T03:54:40;13.55;;;9.82;;
65459;SDS011;52058;49.822;6.754;2023-05-09T03:57:07;14.40;;;9.60;;
65459;SDS011;52058;49.822;6.754;2023-05-09T03:59:33;15.70;;;9.38;;
65459;SDS011;52058;49.822;6.754;2023-05-09T04:02:00;16.80;;;9.93;;
65459;SDS011;52058;49.822;6.754;2023-05-09T04:04:28;12.88;;;9.35;;
65459;SDS011;52058;49.822;6.754;2023-05-09T04:06:54;16.92;;;10.60;;
65459;SDS011;52058;49.822;6.754;2023-05-09T04:09:21;14.65;;;10.18;;
65459;SDS011;52058;49.822;6.754;2023-05-09T04:11:48;16.35;;;10.07;;
65459;SDS011;52058;49.822;6.754;2023-05-09T04:14:14;16.15;;;9.07;;
65459;SDS011;52058;49.822;6.754;2023-05-09T04:16:41;17.25;;;10.15;;
65459;SDS011;52058;49.822;6.754;2023-05-09T04:19:07;14.45;;;9.77;;
65459;SDS011;52058;49.822;6.754;2023-05-09T04:21:35;14.23;;;10.30;;
65459;SDS011;52058;49.822;6.754;2023-05-09T04:24:02;14.98;;;9.85;;
65459;SDS011;52058;49.822;6.754;2023-05-09T04:26:28;14.93;;;11.10;;
65459;SDS011;52058;49.822;6.754;2023-05-09T04:28:55;15.02;;;10.73;;
65459;SDS011;52058;49.822;6.754;2023-05-09T04:31:22;14.30;;;9.75;;
65459;SDS011;52058;49.822;6.754;2023-05-09T04:33:48;10.93;;;8.23;;
65459;SDS011;52058;49.822;6.754;2023-05-09T04:36:15;13.25;;;8.73;;
65459;SDS011;52058;49.822;6.754;2023-05-09T04:38:43;11.13;;;7.97;;
65459;SDS011;52058;49.822;6.754;2023-05-09T04:41:10;12.40;;;8.70;;
65459;SDS011;52058;49.822;6.754;2023-05-09T04:43:37;12.38;;;9.27;;
65459;SDS011;52058;49.822;6.754;2023-05-09T04:46:03;13.02;;;9.43;;
65459;SDS011;52058;49.822;6.754;2023-05-09T04:48:31;13.18;;;9.50;;
65459;SDS011;52058;49.822;6.754;2023-05-09T04:50:58;12.32;;;8.75;;
65459;SDS011;52058;49.822;6.754;2023-05-09T04:53:25;11.68;;;8.63;;
65459;SDS011;52058;49.822;6.754;2023-05-09T04:55:53;12.05;;;8.50;;
65459;SDS011;52058;49.822;6.754;2023-05-09T04:58:20;12.45;;;8.52;;
65459;SDS011;52058;49.822;6.754;2023-05-09T05:00:46;10.93;;;8.75;;
65459;SDS011;52058;49.822;6.754;2023-05-09T05:03:14;13.40;;;8.60;;
65459;SDS011;52058;49.822;6.754;2023-05-09T05:05:42;9.95;;;8.00;;
65459;SDS011;52058;49.822;6.754;2023-05-09T05:08:08;12.13;;;8.13;;
65459;SDS011;52058;49.822;6.754;2023-05-09T05:10:35;12.02;;;8.30;;
65459;SDS011;52058;49.822;6.754;2023-05-09T05:13:03;11.63;;;8.52;;
65459;SDS011;52058;49.822;6.754;2023-05-09T05:15:29;11.30;;;8.50;;
65459;SDS011;52058;49.822;6.754;2023-05-09T05:17:56;11.52;;;8.20;;
65459;SDS011;52058;49.822;6.754;2023-05-09T05:20:22;9.25;;;7.68;;
65459;SDS011;52058;49.822;6.754;2023-05-09T05:22:49;9.52;;;8.13;;
65459;SDS011;52058;49.822;6.754;2023-05-09T05:25:15;15.05;;;8.98;;
65459;SDS011;52058;49.822;6.754;2023-05-09T05:27:42;12.10;;;9.00;;
65459;SDS011;52058;49.822;6.754;2023-05-09T05:30:11;10.98;;;8.88;;
65459;SDS011;52058;49.822;6.754;2023-05-09T05:32:39;14.85;;;8.55;;
65459;SDS011;52058;49.822;6.754;2023-05-09T05:35:06;9.57;;;8.25;;
65459;SDS011;52058;49.822;6.754;2023-05-09T05:37:34;9.60;;;8.18;;
65459;SDS011;52058;49.822;6.754;2023-05-09T05:40:01;9.75;;;7.65;;
65459;SDS011;52058;49.822;6.754;2023-05-09T05:42:27;7.65;;;6.85;;
65459;SDS011;52058;49.822;6.754;2023-05-09T05:44:54;9.40;;;7.47;;
65459;SDS011;52058;49.822;6.754;2023-05-09T05:47:22;8.73;;;7.18;;
65459;SDS011;52058;49.822;6.754;2023-05-09T05:49:49;8.50;;;7.25;;
65459;SDS011;52058;49.822;6.754;2023-05-09T05:52:15;9.50;;;7.43;;
65459;SDS011;52058;49.822;6.754;2023-05-09T05:54:42;8.60;;;7.10;;
65459;SDS011;52058;49.822;6.754;2023-05-09T05:57:08;8.80;;;7.45;;
65459;SDS011;52058;49.822;6.754;2023-05-09T05:59:35;11.40;;;8.23;;
65459;SDS011;52058;49.822;6.754;2023-05-09T06:02:01;10.40;;;8.20;;
65459;SDS011;52058;49.822;6.754;2023-05-09T06:04:29;12.55;;;8.63;;
65459;SDS011;52058;49.822;6.754;2023-05-09T06:06:56;11.95;;;8.27;;
65459;SDS011;52058;49.822;6.754;2023-05-09T06:09:22;9.70;;;7.30;;
65459;SDS011;52058;49.822;6.754;2023-05-09T06:11:49;13.05;;;8.48;;
65459;SDS011;52058;49.822;6.754;2023-05-09T06:14:16;10.02;;;7.47;;
65459;SDS011;52058;49.822;6.754;2023-05-09T06:16:43;9.88;;;7.32;;
65459;SDS011;52058;49.822;6.754;2023-05-09T06:19:09;10.18;;;7.50;;
65459;SDS011;52058;49.822;6.754;2023-05-09T06:21:37;10.02;;;7.35;;
65459;SDS011;52058;49.822;6.754;2023-05-09T06:24:04;7.75;;;6.82;;
65459;SDS011;52058;49.822;6.754;2023-05-09T06:26:31;8.15;;;7.30;;
65459;SDS011;52058;49.822;6.754;2023-05-09T06:28:58;8.55;;;7.57;;
65459;SDS011;52058;49.822;6.754;2023-05-09T06:31:24;9.93;;;7.22;;
65459;SDS011;52058;49.822;6.754;2023-05-09T06:33:51;11.18;;;7.53;;
65459;SDS011;52058;49.822;6.754;2023-05-09T06:36:17;7.47;;;6.72;;
65459;SDS011;52058;49.822;6.754;2023-05-09T06:38:45;7.63;;;6.65;;
65459;SDS011;52058;49.822;6.754;2023-05-09T06:41:12;8.85;;;7.32;;
65459;SDS011;52058;49.822;6.754;2023-05-09T06:43:38;9.93;;;7.07;;
65459;SDS011;52058;49.822;6.754;2023-05-09T06:46:05;9.55;;;6.93;;
65459;SDS011;52058;49.822;6.754;2023-05-09T06:48:31;8.23;;;7.05;;
65459;SDS011;52058;49.822;6.754;2023-05-09T06:50:58;8.32;;;6.72;;
65459;SDS011;52058;49.822;6.754;2023-05-09T06:53:24;8.20;;;7.00;;
65459;SDS011;52058;49.822;6.754;2023-05-09T06:55:52;7.45;;;6.45;;
65459;SDS011;52058;49.822;6.754;2023-05-09T06:58:19;8.50;;;6.15;;
65459;SDS011;52058;49.822;6.754;2023-05-09T07:00:45;8.35;;;6.53;;
65459;SDS011;52058;49.822;6.754;2023-05-09T07:03:12;8.00;;;5.95;;
65459;SDS011;52058;49.822;6.754;2023-05-09T07:05:39;9.70;;;6.88;;
65459;SDS011;52058;49.822;6.754;2023-05-09T07:08:06;7.95;;;6.13;;
65459;SDS011;52058;49.822;6.754;2023-05-09T07:10:33;7.72;;;6.13;;
65459;SDS011;52058;49.822;6.754;2023-05-09T07:13:01;7.60;;;6.40;;
65459;SDS011;52058;49.822;6.754;2023-05-09T07:15:27;7.88;;;6.10;;
65459;SDS011;52058;49.822;6.754;2023-05-09T07:17:54;7.30;;;6.55;;
65459;SDS011;52058;49.822;6.754;2023-05-09T07:20:20;7.22;;;6.07;;
65459;SDS011;52058;49.822;6.754;2023-05-09T07:22:47;9.52;;;6.45;;
65459;SDS011;52058;49.822;6.754;2023-05-09T07:33:20;7.63;;;6.35;;
65459;SDS011;52058;49.822;6.754;2023-05-09T07:35:47;6.80;;;6.10;;
65459;SDS011;52058;49.822;6.754;2023-05-09T07:38:14;6.78;;;5.75;;
65459;SDS011;52058;49.822;6.754;2023-05-09T07:40:41;6.35;;;5.72;;
65459;SDS011;52058;49.822;6.754;2023-05-09T07:43:07;7.13;;;5.80;;
65459;SDS011;52058;49.822;6.754;2023-05-09T07:45:34;9.52;;;5.32;;
65459;SDS011;52058;49.822;6.754;2023-05-09T07:48:01;7.18;;;5.70;;
65459;SDS011;52058;49.822;6.754;2023-05-09T07:50:29;6.60;;;5.22;;
65459;SDS011;52058;49.822;6.754;2023-05-09T07:52:55;7.43;;;5.43;;
65459;SDS011;52058;49.822;6.754;2023-05-09T07:55:22;6.07;;;5.25;;
65459;SDS011;52058;49.822;6.754;2023-05-09T07:57:48;5.97;;;4.38;;
65459;SDS011;52058;49.822;6.754;2023-05-09T08:00:15;5.80;;;5.20;;
65459;SDS011;52058;49.822;6.754;2023-05-09T08:02:47;5.88;;;5.03;;
65459;SDS011;52058;49.822;6.754;2023-05-09T08:05:13;6.07;;;4.68;;
65459;SDS011;52058;49.822;6.754;2023-05-09T08:07:41;5.45;;;4.10;;
65459;SDS011;52058;49.822;6.754;2023-05-09T08:10:08;5.30;;;4.20;;
65459;SDS011;52058;49.822;6.754;2023-05-09T08:12:35;4.57;;;3.78;;
65459;SDS011;52058;49.822;6.754;2023-05-09T08:15:01;6.28;;;4.20;;
65459;SDS011;52058;49.822;6.754;2023-05-09T08:17:28;4.00;;;3.22;;
65459;SDS011;52058;49.822;6.754;2023-05-09T08:19:55;5.07;;;3.45;;
65459;SDS011;52058;49.822;6.754;2023-05-09T08:22:22;7.82;;;3.65;;
65459;SDS011;52058;49.822;6.754;2023-05-09T08:24:50;5.85;;;3.50;;
65459;SDS011;52058;49.822;6.754;2023-05-09T08:27:16;4.28;;;3.80;;
65459;SDS011;52058;49.822;6.754;2023-05-09T08:29:43;5.13;;;3.97;;
65459;SDS011;52058;49.822;6.754;2023-05-09T08:32:09;5.15;;;3.78;;
65459;SDS011;52058;49.822;6.754;2023-05-09T08:34:36;6.18;;;3.80;;
65459;SDS011;52058;49.822;6.754;2023-05-09T08:37:03;5.78;;;4.30;;
65459;SDS011;52058;49.822;6.754;2023-05-09T08:39:29;6.57;;;4.45;;
65459;SDS011;52058;49.822;6.754;2023-05-09T08:42:00;7.55;;;5.30;;
65459;SDS011;52058;49.822;6.754;2023-05-09T08:44:28;5.90;;;4.88;;
65459;SDS011;52058;49.822;6.754;2023-05-09T08:46:57;6.13;;;4.70;;
65459;SDS011;52058;49.822;6.754;2023-05-09T08:49:24;5.07;;;4.38;;
65459;SDS011;52058;49.822;6.754;2023-05-09T08:51:52;7.75;;;3.92;;
65459;SDS011;52058;49.822;6.754;2023-05-09T08:54:18;8.77;;;5.15;;
65459;SDS011;52058;49.822;6.754;2023-05-09T08:56:46;7.30;;;5.45;;
65459;SDS011;52058;49.822;6.754;2023-05-09T08:59:15;5.90;;;4.53;;
65459;SDS011;52058;49.822;6.754;2023-05-09T09:01:43;5.95;;;4.32;;
65459;SDS011;52058;49.822;6.754;2023-05-09T09:04:10;6.13;;;4.35;;
65459;SDS011;52058;49.822;6.754;2023-05-09T09:06:37;4.13;;;3.72;;
65459;SDS011;52058;49.822;6.754;2023-05-09T09:09:05;7.32;;;3.50;;
65459;SDS011;52058;49.822;6.754;2023-05-09T09:11:34;4.70;;;3.90;;
65459;SDS011;52058;49.822;6.754;2023-05-09T09:14:05;6.03;;;3.53;;
65459;SDS011;52058;49.822;6.754;2023-05-09T09:16:38;4.38;;;3.60;;
65459;SDS011;52058;49.822;6.754;2023-05-09T09:19:07;5.13;;;3.53;;
65459;SDS011;52058;49.822;6.754;2023-05-09T09:21:37;3.30;;;2.45;;
65459;SDS011;52058;49.822;6.754;2023-05-09T09:24:07;3.15;;;2.83;;
65459;SDS011;52058;49.822;6.754;2023-05-09T09:26:33;3.63;;;2.55;;
65459;SDS011;52058;49.822;6.754;2023-05-09T09:29:00;4.43;;;2.80;;
65459;SDS011;52058;49.822;6.754;2023-05-09T09:31:30;3.88;;;3.08;;
65459;SDS011;52058;49.822;6.754;2023-05-09T09:34:01;3.47;;;2.80;;
65459;SDS011;52058;49.822;6.754;2023-05-09T09:36:29;6.60;;;3.40;;
65459;SDS011;52058;49.822;6.754;2023-05-09T09:38:57;4.05;;;2.83;;
65459;SDS011;52058;49.822;6.754;2023-05-09T09:41:31;5.75;;;2.88;;
65459;SDS011;52058;49.822;6.754;2023-05-09T09:43:58;3.63;;;2.55;;
65459;SDS011;52058;49.822;6.754;2023-05-09T09:46:39;4.28;;;3.17;;
65459;SDS011;52058;49.822;6.754;2023-05-09T09:49:08;4.13;;;3.17;;
65459;SDS011;52058;49.822;6.754;2023-05-09T09:51:35;4.93;;;3.25;;
65459;SDS011;52058;49.822;6.754;2023-05-09T09:54:02;4.20;;;2.72;;
65459;SDS011;52058;49.822;6.754;2023-05-09T09:56:39;6.10;;;2.95;;
65459;SDS011;52058;49.822;6.754;2023-05-09T09:59:08;3.72;;;2.95;;
65459;SDS011;52058;49.822;6.754;2023-05-09T10:01:42;4.40;;;3.70;;
65459;SDS011;52058;49.822;6.754;2023-05-09T10:04:20;5.00;;;3.53;;
65459;SDS011;52058;49.822;6.754;2023-05-09T10:06:50;4.32;;;3.22;;
65459;SDS011;52058;49.822;6.754;2023-05-09T10:09:19;4.63;;;3.97;;
65459;SDS011;52058;49.822;6.754;2023-05-09T10:11:46;4.63;;;3.53;;
65459;SDS011;52058;49.822;6.754;2023-05-09T10:14:15;3.70;;;3.00;;
65459;SDS011;52058;49.822;6.754;2023-05-09T10:16:43;6.68;;;3.60;;
65459;SDS011;52058;49.822;6.754;2023-05-09T10:19:11;4.35;;;3.00;;
65459;SDS011;52058;49.822;6.754;2023-05-09T10:21:40;3.53;;;3.17;;
65459;SDS011;52058;49.822;6.754;2023-05-09T10:24:08;5.38;;;4.18;;
65459;SDS011;52058;49.822;6.754;2023-05-09T10:26:36;5.07;;;2.70;;
65459;SDS011;52058;49.822;6.754;2023-05-09T10:29:07;4.30;;;2.83;;
65459;SDS011;52058;49.822;6.754;2023-05-09T10:31:38;4.07;;;2.63;;
65459;SDS011;52058;49.822;6.754;2023-05-09T10:34:07;3.78;;;2.55;;
65459;SDS011;52058;49.822;6.754;2023-05-09T10:36:36;3.72;;;2.72;;
65459;SDS011;52058;49.822;6.754;2023-05-09T10:39:04;4.53;;;2.85;;
65459;SDS011;52058;49.822;6.754;2023-05-09T10:41:31;4.72;;;2.70;;
65459;SDS011;52058;49.822;6.754;2023-05-09T10:43:58;3.20;;;2.60;;
65459;SDS011;52058;49.822;6.754;2023-05-09T10:46:25;4.65;;;2.80;;
65459;SDS011;52058;49.822;6.754;2023-05-09T10:48:52;3.10;;;2.70;;
65459;SDS011;52058;49.822;6.754;2023-05-09T10:51:19;3.03;;;2.50;;
65459;SDS011;52058;49.822;6.754;2023-05-09T10:53:47;2.92;;;2.63;;
65459;SDS011;52058;49.822;6.754;2023-05-09T10:56:25;4.30;;;2.67;;
65459;SDS011;52058;49.822;6.754;2023-05-09T10:59:01;3.38;;;2.78;;
65459;SDS011;52058;49.822;6.754;2023-05-09T11:01:29;6.20;;;3.15;;
65459;SDS011;52058;49.822;6.754;2023-05-09T11:03:58;3.83;;;2.67;;
65459;SDS011;52058;49.822;6.754;2023-05-09T11:06:39;3.03;;;2.58;;
65459;SDS011;52058;49.822;6.754;2023-05-09T11:09:23;3.15;;;2.78;;
65459;SDS011;52058;49.822;6.754;2023-05-09T11:11:54;2.95;;;2.55;;
65459;SDS011;52058;49.822;6.754;2023-05-09T11:14:28;4.70;;;2.95;;
65459;SDS011;52058;49.822;6.754;2023-05-09T11:16:56;3.33;;;2.30;;
65459;SDS011;52058;49.822;6.754;2023-05-09T11:19:33;3.58;;;2.28;;
65459;SDS011;52058;49.822;6.754;2023-05-09T11:22:01;4.70;;;2.50;;
65459;SDS011;52058;49.822;6.754;2023-05-09T11:24:30;3.55;;;2.50;;
65459;SDS011;52058;49.822;6.754;2023-05-09T11:26:58;2.97;;;2.40;;
65459;SDS011;52058;49.822;6.754;2023-05-09T11:29:26;3.33;;;2.40;;
65459;SDS011;52058;49.822;6.754;2023-05-09T11:32:05;2.53;;;2.25;;
65459;SDS011;52058;49.822;6.754;2023-05-09T11:34:34;3.35;;;2.38;;
65459;SDS011;52058;49.822;6.754;2023-05-09T11:37:08;3.35;;;2.38;;
65459;SDS011;52058;49.822;6.754;2023-05-09T11:39:45;3.47;;;2.38;;
65459;SDS011;52058;49.822;6.754;2023-05-09T11:42:23;3.72;;;2.40;;
65459;SDS011;52058;49.822;6.754;2023-05-09T11:44:50;3.78;;;2.40;;
65459;SDS011;52058;49.822;6.754;2023-05-09T11:47:18;3.22;;;2.47;;
65459;SDS011;52058;49.822;6.754;2023-05-09T11:49:44;3.35;;;2.38;;
65459;SDS011;52058;49.822;6.754;2023-05-09T11:52:11;3.90;;;2.20;;
65459;SDS011;52058;49.822;6.754;2023-05-09T11:54:38;3.65;;;2.05;;
65459;SDS011;52058;49.822;6.754;2023-05-09T11:57:04;3.78;;;2.30;;
65459;SDS011;52058;49.822;6.754;2023-05-09T11:59:33;3.22;;;2.20;;
65459;SDS011;52058;49.822;6.754;2023-05-09T12:02:01;4.35;;;2.80;;
65459;SDS011;52058;49.822;6.754;2023-05-09T12:04:29;2.90;;;1.92;;
65459;SDS011;52058;49.822;6.754;2023-05-09T12:06:56;4.07;;;2.08;;
65459;SDS011;52058;49.822;6.754;2023-05-09T12:09:23;2.83;;;1.83;;
65459;SDS011;52058;49.822;6.754;2023-05-09T12:11:51;2.38;;;1.90;;
65459;SDS011;52058;49.822;6.754;2023-05-09T12:14:27;2.40;;;2.20;;
65459;SDS011;52058;49.822;6.754;2023-05-09T12:16:56;2.67;;;2.47;;
65459;SDS011;52058;49.822;6.754;2023-05-09T12:19:23;3.08;;;2.40;;
65459;SDS011;52058;49.822;6.754;2023-05-09T12:21:53;3.80;;;2.30;;
65459;SDS011;52058;49.822;6.754;2023-05-09T12:24:21;2.22;;;2.00;;
65459;SDS011;52058;49.822;6.754;2023-05-09T12:26:48;4.13;;;2.28;;
65459;SDS011;52058;49.822;6.754;2023-05-09T12:29:15;3.35;;;2.42;;
65459;SDS011;52058;49.822;6.754;2023-05-09T12:31:43;4.47;;;2.50;;
65459;SDS011;52058;49.822;6.754;2023-05-09T12:34:11;3.35;;;2.17;;
65459;SDS011;52058;49.822;6.754;2023-05-09T12:36:38;4.22;;;2.30;;
65459;SDS011;52058;49.822;6.754;2023-05-09T12:39:08;2.28;;;2.00;;
65459;SDS011;52058;49.822;6.754;2023-05-09T12:41:41;2.47;;;1.80;;
65459;SDS011;52058;49.822;6.754;2023-05-09T12:44:08;2.28;;;1.90;;
65459;SDS011;52058;49.822;6.754;2023-05-09T12:46:35;3.38;;;1.90;;
65459;SDS011;52058;49.822;6.754;2023-05-09T12:49:02;4.47;;;1.98;;
65459;SDS011;52058;49.822;6.754;2023-05-09T12:51:30;3.10;;;1.90;;
65459;SDS011;52058;49.822;6.754;2023-05-09T12:54:01;3.67;;;1.80;;
65459;SDS011;52058;49.822;6.754;2023-05-09T12:56:32;2.10;;;1.90;;
65459;SDS011;52058;49.822;6.754;2023-05-09T12:58:59;2.13;;;1.92;;
65459;SDS011;52058;49.822;6.754;2023-05-09T13:01:26;3.90;;;1.90;;
65459;SDS011;52058;49.822;6.754;2023-05-09T13:04:01;2.38;;;2.00;;
65459;SDS011;52058;49.822;6.754;2023-05-09T13:06:31;2.13;;;1.92;;
65459;SDS011;52058;49.822;6.754;2023-05-09T13:08:58;3.85;;;1.83;;
65459;SDS011;52058;49.822;6.754;2023-05-09T13:11:26;3.72;;;2.05;;
65459;SDS011;52058;49.822;6.754;2023-05-09T13:13:53;3.78;;;2.00;;
65459;SDS011;52058;49.822;6.754;2023-05-09T13:16:20;3.95;;;2.50;;
65459;SDS011;52058;49.822;6.754;2023-05-09T13:18:47;2.58;;;2.30;;
65459;SDS011;52058;49.822;6.754;2023-05-09T13:21:13;2.38;;;2.13;;
65459;SDS011;52058;49.822;6.754;2023-05-09T13:23:41;3.03;;;2.10;;
65459;SDS011;52058;49.822;6.754;2023-05-09T13:26:09;5.00;;;2.58;;
65459;SDS011;52058;49.822;6.754;2023-05-09T13:28:36;5.03;;;2.70;;
65459;SDS011;52058;49.822;6.754;2023-05-09T13:31:02;3.45;;;2.55;;
65459;SDS011;52058;49.822;6.754;2023-05-09T13:33:29;3.33;;;3.03;;
65459;SDS011;52058;49.822;6.754;2023-05-09T13:35:55;3.42;;;3.13;;
65459;SDS011;52058;49.822;6.754;2023-05-09T13:38:22;4.60;;;3.33;;
65459;SDS011;52058;49.822;6.754;2023-05-09T13:40:50;4.15;;;3.35;;
65459;SDS011;52058;49.822;6.754;2023-05-09T13:43:17;5.32;;;3.70;;
65459;SDS011;52058;49.822;6.754;2023-05-09T13:45:43;7.53;;;4.55;;
65459;SDS011;52058;49.822;6.754;2023-05-09T13:48:10;5.00;;;3.80;;
65459;SDS011;52058;49.822;6.754;2023-05-09T13:50:37;5.70;;;4.18;;
65459;SDS011;52058;49.822;6.754;2023-05-09T13:53:03;5.70;;;4.13;;
65459;SDS011;52058;49.822;6.754;2023-05-09T13:55:30;7.15;;;5.72;;
65459;SDS011;52058;49.822;6.754;2023-05-09T13:57:59;4.78;;;4.38;;
65459;SDS011;52058;49.822;6.754;2023-05-09T14:00:26;5.85;;;4.28;;
65459;SDS011;52058;49.822;6.754;2023-05-09T14:02:53;7.28;;;4.57;;
65459;SDS011;52058;49.822;6.754;2023-05-09T14:05:20;5.30;;;4.80;;
65459;SDS011;52058;49.822;6.754;2023-05-09T14:07:46;7.25;;;4.75;;
65459;SDS011;52058;49.822;6.754;2023-05-09T14:10:13;6.63;;;4.85;;
65459;SDS011;52058;49.822;6.754;2023-05-09T14:12:39;5.97;;;4.88;;
65459;SDS011;52058;49.822;6.754;2023-05-09T14:15:09;7.57;;;4.80;;
65459;SDS011;52058;49.822;6.754;2023-05-09T14:17:36;6.13;;;4.82;;
65459;SDS011;52058;49.822;6.754;2023-05-09T14:20:04;6.10;;;5.50;;
65459;SDS011;52058;49.822;6.754;2023-05-09T14:22:32;6.20;;;5.05;;
65459;SDS011;52058;49.822;6.754;2023-05-09T14:24:58;6.63;;;5.32;;
65459;SDS011;52058;49.822;6.754;2023-05-09T14:27:25;6.57;;;5.57;;
65459;SDS011;52058;49.822;6.754;2023-05-09T14:29:51;9.98;;;7.55;;
65459;SDS011;52058;49.822;6.754;2023-05-09T14:32:19;6.85;;;5.95;;
65459;SDS011;52058;49.822;6.754;2023-05-09T14:34:46;6.25;;;5.60;;
65459;SDS011;52058;49.822;6.754;2023-05-09T14:37:13;7.68;;;6.53;;
65459;SDS011;52058;49.822;6.754;2023-05-09T14:39:39;9.48;;;6.53;;
65459;SDS011;52058;49.822;6.754;2023-05-09T14:42:07;8.55;;;6.95;;
65459;SDS011;52058;49.822;6.754;2023-05-09T14:44:35;8.25;;;7.05;;
65459;SDS011;52058;49.822;6.754;2023-05-09T14:47:02;8.00;;;6.57;;
65459;SDS011;52058;49.822;6.754;2023-05-09T14:49:30;9.30;;;6.70;;
65459;SDS011;52058;49.822;6.754;2023-05-09T14:51:57;7.78;;;6.93;;
65459;SDS011;52058;49.822;6.754;2023-05-09T14:54:23;9.45;;;7.03;;
65459;SDS011;52058;49.822;6.754;2023-05-09T14:56:50;10.05;;;7.38;;